Time;durP1;ratioP1;P1;durP2;ratioP2;P2;SDS_P1;SDS_P2;PMS_P1;PMS_P2;Temp;Humidity;BMP_temperature;BMP_pressure;BME280_temperature;BME280_humidity;BME280_pressure;Samples;Min_cycle;Max_cycle;Signal;HPM_P1;HPM_P2
2023/07/22 00:03:37;;;;;;;6.63;3.40;;;;;14.90;96280.00;;;;8194869;28;20238;-68
2023/07/22 00:07:47;;;;;;;5.25;3.50;;;;;14.80;96288.00;;;;8215830;28;20203;-68
2023/07/22 00:11:53;;;;;;;5.13;3.05;;;;;14.80;96287.00;;;;8217727;28;20286;-68
2023/07/22 00:15:56;;;;;;;9.48;3.10;;;;;14.80;96287.00;;;;8195179;28;20336;-68
2023/07/22 00:20:00;;;;;;;7.78;3.30;;;;;14.70;96282.00;;;;8194304;28;20211;-68
2023/07/22 00:24:12;;;;;;;5.05;3.08;;;;;14.60;96285.00;;;;8218072;28;21592;-68
2023/07/22 00:28:18;;;;;;;4.65;3.58;;;;;14.50;96278.00;;;;8217438;28;20207;-68
2023/07/22 00:32:21;;;;;;;6.30;3.38;;;;;14.40;96276.00;;;;8205570;28;20227;-68
2023/07/22 00:36:27;;;;;;;6.88;3.63;;;;;14.30;96270.00;;;;8218117;28;20207;-68
2023/07/22 00:40:37;;;;;;;5.18;3.40;;;;;14.20;96259.00;;;;8213161;28;20206;-68
2023/07/22 00:44:41;;;;;;;4.97;3.30;;;;;14.10;96257.00;;;;8220255;28;20198;-68
2023/07/22 00:48:49;;;;;;;6.53;3.50;;;;;14.00;96255.00;;;;8215507;28;20207;-68
2023/07/22 00:52:52;;;;;;;3.85;3.40;;;;;13.90;96242.00;;;;8217158;28;20241;-68
2023/07/22 00:56:58;;;;;;;5.68;3.22;;;;;13.90;96248.00;;;;8210805;28;20720;-68
2023/07/22 01:01:01;;;;;;;7.53;4.07;;;;;13.90;96243.00;;;;8212789;28;20759;-68
2023/07/22 01:05:10;;;;;;;6.78;3.88;;;;;13.80;96242.00;;;;8218802;28;20237;-68
2023/07/22 01:09:13;;;;;;;4.32;3.55;;;;;13.70;96248.00;;;;8219989;28;20209;-68
2023/07/22 01:13:18;;;;;;;4.30;3.15;;;;;13.60;96247.00;;;;8205322;28;20732;-67
2023/07/22 01:17:24;;;;;;;4.35;3.72;;;;;13.50;96245.00;;;;8219020;28;20203;-67
2023/07/22 01:21:37;;;;;;;6.38;3.67;;;;;13.50;96236.00;;;;8202840;28;20213;-68
2023/07/22 01:25:44;;;;;;;4.60;3.53;;;;;13.50;96231.00;;;;8205495;28;20242;-69
2023/07/22 01:29:47;;;;;;;5.90;3.60;;;;;13.50;96235.00;;;;8214885;28;20250;-68
2023/07/22 01:33:52;;;;;;;7.30;3.63;;;;;13.50;96220.00;;;;8215806;28;20597;-68
2023/07/22 01:37:56;;;;;;;6.18;4.10;;;;;13.50;96233.00;;;;8216389;28;20337;-68
2023/07/22 01:42:00;;;;;;;5.32;3.90;;;;;13.60;96238.00;;;;8216483;28;20274;-68
2023/07/22 01:46:04;;;;;;;5.22;3.83;;;;;13.60;96240.00;;;;8216606;28;20209;-68
2023/07/22 01:50:09;;;;;;;3.92;3.15;;;;;13.60;96244.00;;;;8210594;28;20207;-69
2023/07/22 01:54:14;;;;;;;5.68;3.40;;;;;13.60;96240.00;;;;8217620;28;20229;-68
2023/07/22 01:58:20;;;;;;;5.00;4.07;;;;;13.60;96245.00;;;;8218797;28;20811;-68
2023/07/22 02:02:23;;;;;;;6.53;3.97;;;;;13.60;96248.00;;;;8214153;28;20248;-68
2023/07/22 02:06:28;;;;;;;4.70;3.90;;;;;13.70;96246.00;;;;8214435;28;20239;-68
2023/07/22 02:10:32;;;;;;;4.38;3.63;;;;;13.70;96238.00;;;;8215207;28;20288;-69
2023/07/22 02:14:42;;;;;;;4.68;3.88;;;;;13.70;96241.00;;;;8213333;28;20211;-68
2023/07/22 02:18:45;;;;;;;4.40;3.50;;;;;13.70;96244.00;;;;8214273;28;20553;-68
2023/07/22 02:22:51;;;;;;;3.95;3.17;;;;;13.70;96258.00;;;;8215007;28;20684;-68
2023/07/22 02:26:54;;;;;;;5.25;3.47;;;;;13.70;96257.00;;;;8217683;28;20294;-68
2023/07/22 02:31:05;;;;;;;5.07;3.95;;;;;13.60;96259.00;;;;8189292;28;20265;-69
2023/07/22 02:35:13;;;;;;;7.90;4.20;;;;;13.60;96255.00;;;;8214944;28;20291;-68
2023/07/22 02:39:21;;;;;;;6.60;3.55;;;;;13.50;96256.00;;;;8214578;28;20671;-67
2023/07/22 02:43:24;;;;;;;6.07;3.88;;;;;13.40;96260.00;;;;8219177;28;20243;-69
2023/07/22 02:47:34;;;;;;;6.07;3.55;;;;;13.40;96254.00;;;;8220496;28;20218;-69
2023/07/22 02:51:37;;;;;;;6.40;3.88;;;;;13.30;96253.00;;;;8213708;28;20361;-69
2023/07/22 02:55:40;;;;;;;5.40;3.65;;;;;13.30;96257.00;;;;8201817;28;20242;-69
2023/07/22 02:59:47;;;;;;;4.45;3.92;;;;;13.20;96253.00;;;;8220975;28;20254;-69
2023/07/22 03:03:52;;;;;;;6.13;3.90;;;;;13.30;96252.00;;;;8248350;23;20252;-69
2023/07/22 03:07:57;;;;;;;5.85;3.08;;;;;13.30;96263.00;;;;8213329;28;20238;-69
2023/07/22 03:12:04;;;;;;;5.93;4.05;;;;;13.40;96261.00;;;;8214653;28;20273;-68
2023/07/22 03:16:08;;;;;;;5.60;3.60;;;;;13.50;96254.00;;;;8222345;28;20657;-69
2023/07/22 03:20:16;;;;;;;5.07;3.70;;;;;13.50;96263.00;;;;8219666;28;20226;-69
2023/07/22 03:24:19;;;;;;;5.82;3.38;;;;;13.60;96263.00;;;;8221512;28;20211;-69
2023/07/22 03:28:23;;;;;;;4.97;3.58;;;;;13.60;96257.00;;;;8211699;28;20231;-69
2023/07/22 03:32:26;;;;;;;4.32;3.50;;;;;13.60;96264.00;;;;8212492;28;20235;-69
2023/07/22 03:36:30;;;;;;;3.72;3.00;;;;;13.70;96273.00;;;;8220388;28;20614;-69
2023/07/22 03:40:35;;;;;;;7.45;4.20;;;;;13.70;96279.00;;;;8208664;28;20210;-68
2023/07/22 03:44:40;;;;;;;5.60;3.67;;;;;13.70;96281.00;;;;8221839;28;20279;-68
2023/07/22 03:48:43;;;;;;;5.05;3.50;;;;;13.80;96280.00;;;;8202386;28;20208;-68
2023/07/22 03:52:47;;;;;;;9.65;4.03;;;;;13.70;96291.00;;;;8216562;28;20318;-68
2023/07/22 03:56:52;;;;;;;4.18;3.60;;;;;13.70;96284.00;;;;8213939;28;20206;-68
2023/07/22 04:00:57;;;;;;;6.75;3.42;;;;;13.80;96294.00;;;;8218046;28;20243;-68
2023/07/22 04:05:04;;;;;;;7.40;3.90;;;;;13.80;96294.00;;;;8213954;28;20231;-69
2023/07/22 04:09:12;;;;;;;5.72;3.75;;;;;13.80;96293.00;;;;8207967;28;20203;-69
2023/07/22 04:13:22;;;;;;;4.97;3.40;;;;;14.00;96293.00;;;;8204180;28;20235;-68
2023/07/22 04:17:26;;;;;;;5.00;3.40;;;;;14.00;96298.00;;;;8213153;28;20735;-70
2023/07/22 04:21:32;;;;;;;8.23;3.47;;;;;14.10;96295.00;;;;8218437;28;20263;-68
2023/07/22 04:25:41;;;;;;;3.28;2.97;;;;;14.10;96304.00;;;;8216041;28;20295;-68
2023/07/22 04:29:47;;;;;;;6.40;3.42;;;;;14.30;96302.00;;;;8200623;28;20204;-69
2023/07/22 04:33:50;;;;;;;4.13;3.13;;;;;14.40;96301.00;;;;8210519;28;20235;-69
2023/07/22 04:37:53;;;;;;;6.28;3.45;;;;;14.60;96317.00;;;;8215860;28;20246;-68
2023/07/22 04:41:58;;;;;;;3.35;3.05;;;;;14.80;96321.00;;;;8202848;28;20242;-68
2023/07/22 04:46:01;;;;;;;3.80;3.25;;;;;14.90;96324.00;;;;8212473;28;20248;-68
2023/07/22 04:50:09;;;;;;;4.68;3.45;;;;;15.10;96322.00;;;;8213384;28;20243;-69
2023/07/22 04:54:14;;;;;;;5.25;3.83;;;;;15.30;96326.00;;;;8208797;28;20236;-68
2023/07/22 04:58:20;;;;;;;4.95;3.17;;;;;15.50;96327.00;;;;8213213;28;20208;-69
2023/07/22 05:02:26;;;;;;;7.55;3.53;;;;;15.80;96326.00;;;;8216658;28;20966;-70
2023/07/22 05:06:31;;;;;;;3.47;3.17;;;;;16.10;96326.00;;;;8196292;28;20319;-69
2023/07/22 05:10:37;;;;;;;3.72;3.38;;;;;16.50;96334.00;;;;8213577;28;20801;-69
2023/07/22 05:14:42;;;;;;;4.40;3.50;;;;;16.70;96337.00;;;;8215059;28;20317;-69
2023/07/22 05:18:46;;;;;;;3.33;3.03;;;;;17.00;96335.00;;;;8212297;28;20250;-68
2023/07/22 05:22:50;;;;;;;3.47;2.92;;;;;17.40;96336.00;;;;8214821;28;20242;-68
2023/07/22 05:26:56;;;;;;;4.68;2.97;;;;;17.70;96332.00;;;;8220438;28;20207;-69
2023/07/22 05:31:13;;;;;;;3.70;3.03;;;;;18.10;96333.00;;;;8219668;28;20202;-69
2023/07/22 05:35:19;;;;;;;4.47;2.72;;;;;18.40;96330.00;;;;8220031;28;20247;-69
2023/07/22 05:39:23;;;;;;;4.32;3.40;;;;;18.50;96335.00;;;;8214178;28;20211;-69
2023/07/22 05:43:26;;;;;;;3.67;3.05;;;;;18.50;96353.00;;;;8214415;28;20216;-68
2023/07/22 05:47:30;;;;;;;2.97;2.72;;;;;18.60;96343.00;;;;8214480;28;20242;-68
2023/07/22 05:51:34;;;;;;;3.85;3.08;;;;;18.70;96344.00;;;;8219091;28;20214;-68
2023/07/22 05:55:37;;;;;;;7.28;2.70;;;;;18.80;96340.00;;;;8209812;28;21265;-68
2023/07/22 05:59:41;;;;;;;6.10;3.17;;;;;19.00;96338.00;;;;8209149;28;20235;-67
2023/07/22 06:03:50;;;;;;;4.03;3.22;;;;;19.00;96342.00;;;;8208592;28;20278;-68
2023/07/22 06:07:54;;;;;;;2.72;2.50;;;;;19.10;96345.00;;;;8214469;28;20617;-68
2023/07/22 06:11:59;;;;;;;10.15;3.40;;;;;19.30;96350.00;;;;8223739;28;20296;-68
2023/07/22 06:16:05;;;;;;;4.65;2.88;;;;;19.70;96351.00;;;;8214339;28;20208;-67
2023/07/22 06:20:13;;;;;;;2.67;2.47;;;;;20.10;96349.00;;;;8218456;28;20706;-66
2023/07/22 06:24:18;;;;;;;3.75;2.92;;;;;20.50;96357.00;;;;8219949;28;20251;-66
2023/07/22 06:28:23;;;;;;;11.30;3.17;;;;;20.80;96359.00;;;;8223766;28;20207;-66
2023/07/22 06:32:26;;;;;;;5.40;3.28;;;;;21.10;96365.00;;;;8220936;28;20322;-68
2023/07/22 06:36:32;;;;;;;4.15;2.67;;;;;21.30;96363.00;;;;8219887;28;20199;-67
2023/07/22 06:40:35;;;;;;;4.90;2.70;;;;;21.80;96366.00;;;;8219244;28;20227;-68
2023/07/22 06:44:40;;;;;;;3.38;2.63;;;;;22.50;96378.00;;;;8218908;28;20726;-67
2023/07/22 06:48:44;;;;;;;4.43;2.70;;;;;23.00;96376.00;;;;8213771;28;20812;-68
2023/07/22 06:52:51;;;;;;;5.75;2.63;;;;;23.40;96374.00;;;;8221329;28;20342;-68
2023/07/22 06:56:54;;;;;;;2.75;2.47;;;;;23.60;96383.00;;;;8212660;28;20740;-68
2023/07/22 07:01:03;;;;;;;2.45;2.25;;;;;23.80;96373.00;;;;8218784;28;20246;-68
2023/07/22 07:05:07;;;;;;;2.97;2.45;;;;;23.90;96371.00;;;;8197108;28;20239;-68
2023/07/22 07:09:12;;;;;;;2.67;2.45;;;;;24.50;96386.00;;;;8217923;28;20208;-67
2023/07/22 07:13:17;;;;;;;4.22;2.45;;;;;24.80;96386.00;;;;8213313;28;20227;-68
2023/07/22 07:17:20;;;;;;;5.63;2.40;;;;;25.10;96386.00;;;;8206337;28;20215;-68
2023/07/22 07:21:27;;;;;;;5.25;2.80;;;;;25.30;96387.00;;;;8216753;28;20215;-68
2023/07/22 07:25:32;;;;;;;2.88;2.50;;;;;25.30;96388.00;;;;8218829;28;20290;-67
2023/07/22 07:29:40;;;;;;;4.07;2.70;;;;;25.70;96393.00;;;;8215264;28;20207;-68
2023/07/22 07:33:56;;;;;;;2.58;2.20;;;;;25.90;96397.00;;;;8220209;28;20234;-68
2023/07/22 07:38:03;;;;;;;2.63;2.42;;;;;26.00;96395.00;;;;8221425;28;20657;-68
2023/07/22 07:42:07;;;;;;;4.78;2.60;;;;;26.40;96402.00;;;;8213205;28;20249;-68
2023/07/22 07:46:20;;;;;;;3.05;2.38;;;;;26.50;96404.00;;;;8221128;28;20286;-68
2023/07/22 07:50:23;;;;;;;3.95;2.83;;;;;26.80;96410.00;;;;8222209;28;20212;-68
2023/07/22 07:54:26;;;;;;;3.97;2.40;;;;;27.00;96407.00;;;;8221662;28;20231;-68
2023/07/22 07:58:32;;;;;;;2.63;2.42;;;;;27.10;96416.00;;;;8215074;28;20208;-68
2023/07/22 08:02:40;;;;;;;2.75;2.20;;;;;27.20;96419.00;;;;8213219;28;20235;-69
2023/07/22 08:06:53;;;;;;;3.78;2.45;;;;;27.30;96417.00;;;;8217288;28;20251;-69
2023/07/22 08:11:00;;;;;;;3.28;2.50;;;;;27.80;96413.00;;;;8208822;28;20283;-68
2023/07/22 08:15:08;;;;;;;4.75;2.45;;;;;28.00;96418.00;;;;8216696;28;20924;-67
2023/07/22 08:19:14;;;;;;;5.38;2.10;;;;;28.30;96424.00;;;;8215351;28;20291;-70
2023/07/22 08:23:20;;;;;;;5.70;2.00;;;;;28.00;96426.00;;;;8210253;28;20284;-68
2023/07/22 08:27:24;;;;;;;3.08;2.40;;;;;27.40;96434.00;;;;8219633;28;20722;-69
2023/07/22 08:31:31;;;;;;;3.85;2.40;;;;;27.60;96426.00;;;;8213366;28;20307;-68
2023/07/22 08:35:37;;;;;;;2.45;2.10;;;;;28.30;96436.00;;;;8212411;28;20244;-69
2023/07/22 08:39:43;;;;;;;2.40;2.20;;;;;27.90;96421.00;;;;8201163;28;20629;-68
2023/07/22 08:43:47;;;;;;;2.72;1.95;;;;;27.60;96429.00;;;;8196954;28;20215;-68
2023/07/22 08:47:57;;;;;;;2.53;2.30;;;;;28.10;96421.00;;;;8208326;28;20215;-68
2023/07/22 08:52:04;;;;;;;2.80;2.60;;;;;27.50;96432.00;;;;8213158;28;20238;-68
2023/07/22 08:56:09;;;;;;;4.38;2.55;;;;;27.00;96424.00;;;;8216256;28;20669;-68
2023/07/22 09:00:14;;;;;;;2.13;1.98;;;;;27.60;96431.00;;;;8216070;28;20733;-68
2023/07/22 09:04:19;;;;;;;3.85;2.10;;;;;28.10;96427.00;;;;8214058;28;20267;-69
2023/07/22 09:08:24;;;;;;;3.13;2.35;;;;;27.70;96425.00;;;;8198333;28;20235;-69
2023/07/22 09:12:27;;;;;;;6.38;2.00;;;;;27.40;96422.00;;;;8213136;28;20207;-69
2023/07/22 09:16:33;;;;;;;2.53;2.33;;;;;27.60;96432.00;;;;8208859;28;20564;-69
2023/07/22 09:20:40;;;;;;;2.40;2.08;;;;;28.40;96421.00;;;;8211245;28;20207;-68
2023/07/22 09:24:44;;;;;;;2.65;2.20;;;;;28.60;96418.00;;;;8216834;28;20218;-66
2023/07/22 09:28:54;;;;;;;2.10;2.00;;;;;28.70;96423.00;;;;8206126;28;20733;-66
2023/07/22 09:32:59;;;;;;;3.42;2.15;;;;;29.00;96410.00;;;;8215528;28;20242;-67
2023/07/22 09:37:05;;;;;;;2.95;2.45;;;;;29.30;96413.00;;;;8214721;28;20204;-70
2023/07/22 09:41:13;;;;;;;2.40;2.30;;;;;29.80;96427.00;;;;8216182;28;20267;-69
2023/07/22 09:45:16;;;;;;;5.65;2.55;;;;;30.00;96408.00;;;;8210843;28;20218;-69
2023/07/22 09:49:23;;;;;;;3.97;2.15;;;;;30.20;96406.00;;;;8218543;28;20207;-70
2023/07/22 09:53:31;;;;;;;2.40;1.75;;;;;30.30;96401.00;;;;8220455;28;20369;-68
2023/07/22 09:57:37;;;;;;;2.30;2.10;;;;;29.80;96407.00;;;;8216659;28;20229;-69
2023/07/22 10:01:46;;;;;;;3.45;1.92;;;;;28.90;96404.00;;;;8215631;28;20318;-67
2023/07/22 10:05:52;;;;;;;2.70;2.50;;;;;28.10;96401.00;;;;8213676;28;20617;-67
2023/07/22 10:09:59;;;;;;;5.28;2.40;;;;;27.90;96389.00;;;;8220650;28;20246;-68
2023/07/22 10:14:02;;;;;;;2.70;2.05;;;;;27.70;96397.00;;;;8221551;28;20228;-70
2023/07/22 10:18:07;;;;;;;4.85;2.47;;;;;27.60;96395.00;;;;8222522;28;20227;-69
2023/07/22 10:22:12;;;;;;;3.00;1.90;;;;;27.30;96389.00;;;;8226661;28;20203;-69
2023/07/22 10:26:20;;;;;;;3.10;1.92;;;;;27.20;96388.00;;;;8216352;28;20582;-68
2023/07/22 10:30:44;;;;;;;3.30;2.20;;;;;27.20;96394.00;;;;8219284;28;20234;-69
2023/07/22 10:34:50;;;;;;;2.58;1.95;;;;;27.30;96390.00;;;;8229673;28;20224;-69
2023/07/22 10:38:57;;;;;;;3.42;2.50;;;;;28.60;96386.00;;;;8216548;28;20977;-69
2023/07/22 10:43:07;;;;;;;2.33;2.13;;;;;29.40;96384.00;;;;8237230;28;20204;-69
2023/07/22 10:47:10;;;;;;;2.95;2.38;;;;;29.20;96390.00;;;;8221656;28;20207;-69
2023/07/22 10:51:17;;;;;;;4.25;1.92;;;;;29.00;96381.00;;;;8221852;28;20219;-75
2023/07/22 10:55:20;;;;;;;3.80;2.05;;;;;28.30;96375.00;;;;8215439;28;20227;-71
2023/07/22 10:59:28;;;;;;;2.45;2.00;;;;;28.00;96381.00;;;;8217053;28;20791;-69
2023/07/22 11:03:33;;;;;;;2.90;2.30;;;;;28.00;96373.00;;;;8221601;28;20259;-68
2023/07/22 11:07:47;;;;;;;2.63;2.42;;;;;27.90;96373.00;;;;8218866;28;20302;-68
2023/07/22 11:11:50;;;;;;;1.83;1.73;;;;;27.90;96368.00;;;;8217337;28;20230;-69
2023/07/22 11:16:02;;;;;;;1.95;1.85;;;;;27.60;96358.00;;;;8222068;28;20330;-69
2023/07/22 11:20:08;;;;;;;2.83;2.00;;;;;27.70;96366.00;;;;8222357;28;20820;-68
2023/07/22 11:24:13;;;;;;;7.57;2.08;;;;;28.70;96355.00;;;;8222555;28;20204;-68
2023/07/22 11:28:17;;;;;;;2.00;1.80;;;;;29.80;96353.00;;;;8221317;28;20203;-69
2023/07/22 11:32:25;;;;;;;2.42;2.00;;;;;30.20;96352.00;;;;8215153;28;20207;-68
2023/07/22 11:36:30;;;;;;;1.80;1.70;;;;;30.70;96346.00;;;;8221390;28;20231;-68
2023/07/22 11:40:34;;;;;;;3.30;1.80;;;;;31.40;96351.00;;;;8206498;28;20212;-69
2023/07/22 11:44:38;;;;;;;3.05;2.00;;;;;31.70;96348.00;;;;8219288;28;20221;-69
2023/07/22 11:48:56;;;;;;;4.55;1.55;;;;;31.40;96341.00;;;;8210707;28;20231;-69
2023/07/22 11:53:01;;;;;;;1.90;1.80;;;;;32.70;96333.00;;;;8207047;28;20291;-70
2023/07/22 11:57:11;;;;;;;2.10;1.80;;;;;33.30;96333.00;;;;8215340;28;20596;-71
2023/07/22 12:01:17;;;;;;;3.85;2.30;;;;;32.80;96328.00;;;;8216145;28;20239;-70
2023/07/22 12:05:27;;;;;;;3.30;2.15;;;;;32.10;96325.00;;;;8249237;28;20215;-74
2023/07/22 12:09:30;;;;;;;3.83;1.90;;;;;31.70;96312.00;;;;8235126;28;20246;-74
2023/07/22 12:13:46;;;;;;;4.10;2.25;;;;;30.70;96309.00;;;;8235200;28;20203;-74
2023/07/22 12:17:53;;;;;;;4.22;1.90;;;;;30.70;96315.00;;;;8233310;28;20318;-74
2023/07/22 12:21:58;;;;;;;2.50;2.30;;;;;30.90;96314.00;;;;8234008;28;20204;-74
2023/07/22 12:26:05;;;;;;;2.13;1.92;;;;;30.20;96302.00;;;;8234567;28;20199;-68
2023/07/22 12:30:09;;;;;;;2.08;1.98;;;;;29.80;96298.00;;;;8234720;28;20565;-69
2023/07/22 12:34:12;;;;;;;3.22;1.92;;;;;30.10;96290.00;;;;8234260;28;20637;-70
2023/07/22 12:38:17;;;;;;;2.50;2.25;;;;;29.70;96288.00;;;;8234493;28;20250;-73
2023/07/22 12:42:20;;;;;;;2.88;2.15;;;;;29.00;96281.00;;;;8233833;28;20643;-74
2023/07/22 12:46:23;;;;;;;5.80;2.08;;;;;28.90;96287.00;;;;8233482;28;20296;-74
2023/07/22 12:50:33;;;;;;;2.75;2.15;;;;;29.10;96276.00;;;;8233930;28;20247;-73
2023/07/22 12:54:41;;;;;;;4.82;2.60;;;;;28.90;96276.00;;;;8233582;28;20331;-73
2023/07/22 12:58:44;;;;;;;3.00;2.20;;;;;28.90;96276.00;;;;8232967;28;20286;-73
2023/07/22 13:02:50;;;;;;;2.33;1.90;;;;;29.20;96263.00;;;;8228973;28;20893;-73
2023/07/22 13:06:54;;;;;;;2.20;2.00;;;;;29.70;96258.00;;;;8212045;28;20291;-72
2023/07/22 13:11:03;;;;;;;3.03;2.28;;;;;29.70;96256.00;;;;8216065;28;20290;-73
2023/07/22 13:15:11;;;;;;;4.00;2.25;;;;;29.50;96250.00;;;;8218991;28;20230;-72
2023/07/22 13:19:15;;;;;;;2.15;2.05;;;;;29.40;96247.00;;;;8206604;28;20688;-72
2023/07/22 13:23:20;;;;;;;9.15;2.10;;;;;29.80;96247.00;;;;8201146;28;20302;-73
2023/07/22 13:27:26;;;;;;;4.35;2.17;;;;;30.10;96249.00;;;;8206159;28;20242;-72
2023/07/22 13:31:29;;;;;;;4.07;2.10;;;;;30.90;96243.00;;;;8203726;28;20291;-72
2023/07/22 13:35:33;;;;;;;2.70;2.03;;;;;31.80;96252.00;;;;8204197;28;20661;-73
2023/07/22 13:39:36;;;;;;;4.55;2.15;;;;;32.30;96249.00;;;;8202954;28;20725;-72
2023/07/22 13:43:41;;;;;;;2.90;2.00;;;;;33.20;96246.00;;;;8209469;28;20250;-73
2023/07/22 13:47:44;;;;;;;4.47;2.05;;;;;34.10;96246.00;;;;8208653;28;20246;-73
2023/07/22 13:51:49;;;;;;;3.00;2.10;;;;;34.20;96239.00;;;;8211560;28;20652;-73
2023/07/22 13:55:53;;;;;;;2.75;2.55;;;;;33.90;96236.00;;;;8197689;28;20267;-71
2023/07/22 13:59:58;;;;;;;2.08;1.98;;;;;33.10;96242.00;;;;8206330;28;20212;-70
2023/07/22 14:04:01;;;;;;;2.63;2.42;;;;;31.50;96240.00;;;;8202974;28;20329;-69
2023/07/22 14:08:08;;;;;;;2.60;2.35;;;;;31.00;96240.00;;;;8194055;28;20200;-70
2023/07/22 14:12:13;;;;;;;2.53;2.03;;;;;30.70;96237.00;;;;8202153;28;20283;-70
2023/07/22 14:16:17;;;;;;;7.30;2.63;;;;;30.20;96237.00;;;;8204721;28;20315;-70
2023/07/22 14:20:25;;;;;;;6.55;2.45;;;;;29.60;96235.00;;;;8215801;28;20211;-70
2023/07/22 14:24:28;;;;;;;2.35;2.15;;;;;29.80;96223.00;;;;8197756;28;20215;-70
2023/07/22 14:28:45;;;;;;;5.45;2.75;;;;;29.80;96227.00;;;;8203043;28;20209;-70
2023/07/22 14:32:52;;;;;;;2.70;2.20;;;;;30.20;96221.00;;;;8211686;28;20302;-72
2023/07/22 14:36:57;;;;;;;5.68;2.38;;;;;29.70;96219.00;;;;8200357;28;20239;-72
2023/07/22 14:41:00;;;;;;;2.88;2.20;;;;;30.30;96217.00;;;;8219267;28;20286;-72
2023/07/22 14:45:06;;;;;;;4.53;2.58;;;;;30.70;96232.00;;;;8214302;28;20235;-73
2023/07/22 14:49:10;;;;;;;3.20;2.25;;;;;31.00;96234.00;;;;8213110;28;20717;-73
2023/07/22 14:53:16;;;;;;;1.90;1.80;;;;;31.30;96227.00;;;;8218223;28;20243;-72
2023/07/22 14:57:19;;;;;;;2.95;2.00;;;;;31.00;96217.00;;;;8218953;28;20242;-73
2023/07/22 15:01:23;;;;;;;2.88;2.42;;;;;30.70;96222.00;;;;8212664;28;20208;-73
2023/07/22 15:05:28;;;;;;;3.88;2.00;;;;;30.90;96227.00;;;;8215048;28;20204;-73
2023/07/22 15:09:31;;;;;;;3.10;2.10;;;;;32.00;96228.00;;;;8208304;28;20203;-72
2023/07/22 15:13:36;;;;;;;4.43;2.28;;;;;31.80;96221.00;;;;8221654;28;20250;-72
2023/07/22 15:17:42;;;;;;;6.25;2.10;;;;;31.60;96215.00;;;;8205826;28;20291;-69
2023/07/22 15:21:47;;;;;;;2.30;2.00;;;;;31.40;96208.00;;;;8208466;28;20212;-69
2023/07/22 15:25:50;;;;;;;2.22;1.98;;;;;31.60;96204.00;;;;8212039;28;20870;-69
2023/07/22 15:29:53;;;;;;;2.88;2.30;;;;;32.00;96198.00;;;;8211315;28;20207;-70
2023/07/22 15:33:56;;;;;;;4.70;2.50;;;;;32.00;96206.00;;;;8213328;28;20199;-69
2023/07/22 15:38:01;;;;;;;3.55;2.05;;;;;32.10;96191.00;;;;8207498;28;20246;-70
2023/07/22 15:42:04;;;;;;;2.30;2.10;;;;;31.90;96194.00;;;;8214471;28;20204;-69
2023/07/22 15:46:07;;;;;;;2.38;2.17;;;;;32.00;96194.00;;;;8217855;28;20640;-70
2023/07/22 15:50:11;;;;;;;4.57;1.95;;;;;32.50;96188.00;;;;8215595;28;20259;-70
2023/07/22 15:54:21;;;;;;;3.13;2.20;;;;;32.50;96186.00;;;;8196735;28;20924;-70
2023/07/22 15:58:28;;;;;;;2.35;2.15;;;;;32.50;96183.00;;;;8206490;28;20242;-70
2023/07/22 16:02:33;;;;;;;2.10;1.92;;;;;32.90;96181.00;;;;8214707;28;20270;-70
2023/07/22 16:06:38;;;;;;;2.60;2.40;;;;;32.90;96172.00;;;;8208520;28;20221;-70
2023/07/22 16:10:46;;;;;;;3.25;2.08;;;;;32.50;96174.00;;;;8207439;28;20228;-70
2023/07/22 16:14:49;;;;;;;2.15;2.05;;;;;32.20;96180.00;;;;8210974;28;20290;-70
2023/07/22 16:18:53;;;;;;;2.35;2.15;;;;;31.80;96173.00;;;;8219962;28;20745;-73
2023/07/22 16:22:58;;;;;;;3.65;1.70;;;;;31.70;96187.00;;;;8218614;28;20242;-73
2023/07/22 16:27:06;;;;;;;2.10;1.95;;;;;31.40;96186.00;;;;8220859;28;20212;-73
2023/07/22 16:31:09;;;;;;;2.28;2.17;;;;;31.30;96186.00;;;;8204803;28;20717;-73
2023/07/22 16:35:17;;;;;;;2.15;1.95;;;;;31.40;96183.00;;;;8206726;28;20207;-72
2023/07/22 16:39:24;;;;;;;2.78;1.98;;;;;32.10;96175.00;;;;8212515;28;20242;-70
2023/07/22 16:43:29;;;;;;;2.60;2.38;;;;;32.30;96180.00;;;;8222443;28;20298;-73
2023/07/22 16:47:35;;;;;;;3.35;2.10;;;;;32.60;96175.00;;;;8214588;28;20318;-73
2023/07/22 16:51:38;;;;;;;2.65;1.80;;;;;32.60;96181.00;;;;8219622;28;20261;-72
2023/07/22 16:55:42;;;;;;;3.20;2.00;;;;;32.30;96184.00;;;;8222199;28;20266;-73
2023/07/22 16:59:48;;;;;;;3.80;2.10;;;;;32.00;96177.00;;;;8211714;28;20214;-70
2023/07/22 17:03:54;;;;;;;6.03;1.95;;;;;31.30;96179.00;;;;8213519;28;20236;-69
2023/07/22 17:08:00;;;;;;;5.05;1.90;;;;;30.50;96177.00;;;;8216368;28;20204;-70
2023/07/22 17:12:03;;;;;;;2.20;1.90;;;;;29.90;96176.00;;;;8216159;28;20212;-71
2023/07/22 17:16:11;;;;;;;4.15;2.10;;;;;29.40;96177.00;;;;8212791;28;20584;-69
2023/07/22 17:20:18;;;;;;;5.40;2.20;;;;;29.00;96176.00;;;;8219935;28;20212;-69
2023/07/22 17:24:21;;;;;;;2.80;2.08;;;;;28.80;96171.00;;;;8210987;28;20239;-69
2023/07/22 17:28:27;;;;;;;3.70;2.20;;;;;28.70;96177.00;;;;8213846;28;20203;-72
2023/07/22 17:32:33;;;;;;;3.97;2.08;;;;;28.90;96170.00;;;;8218814;28;20234;-71
2023/07/22 17:36:39;;;;;;;1.83;1.73;;;;;28.90;96170.00;;;;8204468;28;20769;-72
2023/07/22 17:40:44;;;;;;;2.28;2.05;;;;;28.70;96175.00;;;;8211199;28;20208;-69
2023/07/22 17:44:50;;;;;;;3.25;2.00;;;;;28.40;96177.00;;;;8207814;28;20207;-72
2023/07/22 17:48:57;;;;;;;4.18;2.08;;;;;28.30;96168.00;;;;8212599;28;20242;-73
2023/07/22 17:53:00;;;;;;;2.22;2.00;;;;;28.10;96172.00;;;;8210091;28;20203;-73
2023/07/22 17:57:05;;;;;;;2.67;2.30;;;;;27.90;96171.00;;;;8209156;28;20310;-76
2023/07/22 18:01:11;;;;;;;5.38;2.00;;;;;27.80;96172.00;;;;8204655;28;20669;-76
2023/07/22 18:05:18;;;;;;;5.15;1.95;;;;;27.60;96168.00;;;;8207355;28;20311;-76
2023/07/22 18:09:21;;;;;;;5.68;2.38;;;;;27.50;96171.00;;;;8205430;28;20283;-75
2023/07/22 18:13:24;;;;;;;3.65;2.08;;;;;27.40;96173.00;;;;8214786;28;20242;-74
2023/07/22 18:17:28;;;;;;;4.15;2.13;;;;;27.20;96170.00;;;;8205489;28;20669;-75
2023/07/22 18:21:32;;;;;;;3.80;2.22;;;;;27.10;96169.00;;;;8208887;28;20208;-76
2023/07/22 18:25:38;;;;;;;4.55;2.00;;;;;26.70;96165.00;;;;8217055;28;20200;-76
2023/07/22 18:29:44;;;;;;;2.45;2.22;;;;;26.30;96176.00;;;;8218608;28;20222;-76
2023/07/22 18:33:53;;;;;;;5.95;1.90;;;;;25.80;96184.00;;;;8220395;28;20749;-72
2023/07/22 18:37:57;;;;;;;2.60;2.40;;;;;25.50;96180.00;;;;8204090;28;20314;-73
2023/07/22 18:42:03;;;;;;;3.75;2.22;;;;;25.10;96183.00;;;;8202118;28;20642;-75
2023/07/22 18:46:14;;;;;;;5.32;2.28;;;;;24.80;96180.00;;;;8220266;28;20645;-73
2023/07/22 18:50:21;;;;;;;3.40;2.03;;;;;24.50;96183.00;;;;8214115;28;20287;-73
2023/07/22 18:54:29;;;;;;;5.03;2.20;;;;;24.20;96178.00;;;;8205624;28;20827;-75
2023/07/22 18:58:34;;;;;;;5.72;2.50;;;;;23.90;96178.00;;;;8217852;28;20239;-73
2023/07/22 19:02:38;;;;;;;5.68;2.65;;;;;23.50;96187.00;;;;8218314;28;20238;-73
2023/07/22 19:06:43;;;;;;;5.78;2.70;;;;;23.10;96175.00;;;;8207821;28;20247;-73
2023/07/22 19:10:50;;;;;;;2.42;2.22;;;;;22.80;96182.00;;;;8218083;28;20290;-73
2023/07/22 19:14:53;;;;;;;10.68;2.45;;;;;22.50;96188.00;;;;8218253;28;20209;-73
2023/07/22 19:18:56;;;;;;;4.25;2.95;;;;;22.10;96194.00;;;;8211943;28;20570;-70
2023/07/22 19:23:02;;;;;;;5.80;2.50;;;;;21.90;96199.00;;;;8209434;28;20291;-72
2023/07/22 19:27:14;;;;;;;5.18;2.55;;;;;21.60;96195.00;;;;8217800;28;20238;-73
2023/07/22 19:31:20;;;;;;;2.40;2.20;;;;;21.40;96200.00;;;;8216350;28;20295;-73
2023/07/22 19:35:23;;;;;;;7.85;3.08;;;;;21.10;96205.00;;;;8210487;28;20200;-72
2023/07/22 19:39:27;;;;;;;2.80;2.20;;;;;20.80;96201.00;;;;8198852;28;20239;-71
2023/07/22 19:43:32;;;;;;;3.28;2.50;;;;;20.60;96204.00;;;;8210428;28;20795;-72
2023/07/22 19:47:35;;;;;;;6.55;2.40;;;;;20.30;96204.00;;;;8215269;28;20704;-71
2023/07/22 19:51:41;;;;;;;3.88;2.50;;;;;20.00;96212.00;;;;8209418;28;20275;-72
2023/07/22 19:55:44;;;;;;;6.70;2.55;;;;;19.80;96204.00;;;;8201962;28;20303;-72
2023/07/22 19:59:49;;;;;;;4.75;3.13;;;;;19.50;96205.00;;;;8214714;28;20318;-72
2023/07/22 20:03:52;;;;;;;4.30;2.50;;;;;19.40;96200.00;;;;8214569;28;20239;-72
2023/07/22 20:07:59;;;;;;;6.47;3.72;;;;;19.20;96207.00;;;;8214283;28;20769;-72
2023/07/22 20:12:02;;;;;;;9.15;3.13;;;;;19.10;96210.00;;;;8218622;28;20233;-72
2023/07/22 20:16:09;;;;;;;14.75;4.15;;;;;18.90;96212.00;;;;8205721;28;21567;-72
2023/07/22 20:20:13;;;;;;;9.23;5.22;;;;;18.90;96210.00;;;;8217899;28;20317;-71
2023/07/22 20:24:18;;;;;;;9.40;4.38;;;;;18.80;96214.00;;;;8215261;28;20234;-72
2023/07/22 20:28:26;;;;;;;8.48;3.72;;;;;18.70;96213.00;;;;8198406;28;20569;-72
2023/07/22 20:32:31;;;;;;;10.13;4.07;;;;;18.50;96213.00;;;;8216243;28;20239;-71